New Hampton, New York
Current Conditions -  °F | °C
As of 10:54 PM on Friday 24 Oct 2014 (Local Time) from KMGJ Reporting Station
Clear Clear  
Wind Chill: 53°   Ceiling: Unl
Heat Index: 53°   Visibility: 10mi
Dew Point: 34°   Wind: 7mph
Humidity: 48%   Direction: 300°WNW
Pressure: 29.85"   Gusts: NA
Location:  41.41°N, 74.41°W
Report Text: KMGJ 250254Z AUTO 30006KT 10SM CLR 12/01 A2985 RMK AO2 SLP107 T01170011 53015 TSNO
Loading
Personal Weather Stations






























Interactive Weather Map
Tropical Storm Tracking
New forecast layout! Learn more

10-Day Weather Forecast

Advertisements
Track Severe Weather on mobile